sensor_id;sensor_type;location;lat;lon;timestamp;P1;durP1;ratioP1;P2;durP2;ratioP2
79751;SDS011;69234;47.446;21.636;2023-08-08T00:00:06;2.13;;;2.13;;
79751;SDS011;69234;47.446;21.636;2023-08-08T00:00:38;2.10;;;2.10;;
79751;SDS011;69234;47.446;21.636;2023-08-08T00:01:09;2.33;;;2.33;;
79751;SDS011;69234;47.446;21.636;2023-08-08T00:01:40;2.43;;;2.43;;
79751;SDS011;69234;47.446;21.636;2023-08-08T00:02:13;2.40;;;2.40;;
79751;SDS011;69234;47.446;21.636;2023-08-08T00:02:44;2.40;;;2.40;;
79751;SDS011;69234;47.446;21.636;2023-08-08T00:03:15;2.33;;;2.33;;
79751;SDS011;69234;47.446;21.636;2023-08-08T00:03:45;2.37;;;2.37;;
79751;SDS011;69234;47.446;21.636;2023-08-08T00:04:16;2.73;;;2.73;;
79751;SDS011;69234;47.446;21.636;2023-08-08T00:04:48;2.43;;;2.43;;
79751;SDS011;69234;47.446;21.636;2023-08-08T00:05:20;2.40;;;2.40;;
79751;SDS011;69234;47.446;21.636;2023-08-08T00:05:51;2.43;;;2.43;;
79751;SDS011;69234;47.446;21.636;2023-08-08T00:06:22;2.37;;;2.37;;
79751;SDS011;69234;47.446;21.636;2023-08-08T00:06:53;2.20;;;2.20;;
79751;SDS011;69234;47.446;21.636;2023-08-08T00:07:25;1.93;;;1.93;;
79751;SDS011;69234;47.446;21.636;2023-08-08T00:08:00;1.90;;;1.90;;
79751;SDS011;69234;47.446;21.636;2023-08-08T00:08:31;1.93;;;1.93;;
79751;SDS011;69234;47.446;21.636;2023-08-08T00:09:02;2.40;;;2.40;;
79751;SDS011;69234;47.446;21.636;2023-08-08T00:09:33;2.37;;;2.37;;
79751;SDS011;69234;47.446;21.636;2023-08-08T00:10:04;2.07;;;2.07;;
79751;SDS011;69234;47.446;21.636;2023-08-08T00:11:12;2.00;;;2.00;;
79751;SDS011;69234;47.446;21.636;2023-08-08T00:11:43;2.20;;;2.20;;
79751;SDS011;69234;47.446;21.636;2023-08-08T00:12:14;2.10;;;2.10;;
79751;SDS011;69234;47.446;21.636;2023-08-08T00:12:45;1.80;;;1.80;;
79751;SDS011;69234;47.446;21.636;2023-08-08T00:13:16;2.23;;;2.23;;
79751;SDS011;69234;47.446;21.636;2023-08-08T00:13:46;1.97;;;1.97;;
79751;SDS011;69234;47.446;21.636;2023-08-08T00:14:17;1.83;;;1.83;;
79751;SDS011;69234;47.446;21.636;2023-08-08T00:14:48;2.10;;;2.10;;
79751;SDS011;69234;47.446;21.636;2023-08-08T00:15:19;2.23;;;2.23;;
79751;SDS011;69234;47.446;21.636;2023-08-08T00:15:50;2.13;;;2.13;;
79751;SDS011;69234;47.446;21.636;2023-08-08T00:16:22;1.90;;;1.90;;
79751;SDS011;69234;47.446;21.636;2023-08-08T00:16:53;1.97;;;1.97;;
79751;SDS011;69234;47.446;21.636;2023-08-08T00:17:24;2.30;;;2.30;;
79751;SDS011;69234;47.446;21.636;2023-08-08T00:17:55;2.17;;;2.17;;
79751;SDS011;69234;47.446;21.636;2023-08-08T00:18:26;2.20;;;2.20;;
79751;SDS011;69234;47.446;21.636;2023-08-08T00:18:57;2.17;;;2.17;;
79751;SDS011;69234;47.446;21.636;2023-08-08T00:19:28;2.30;;;2.30;;
79751;SDS011;69234;47.446;21.636;2023-08-08T00:19:59;2.07;;;2.07;;
79751;SDS011;69234;47.446;21.636;2023-08-08T00:20:30;2.27;;;2.27;;
79751;SDS011;69234;47.446;21.636;2023-08-08T00:21:01;2.43;;;2.43;;
79751;SDS011;69234;47.446;21.636;2023-08-08T00:21:32;2.27;;;2.27;;
79751;SDS011;69234;47.446;21.636;2023-08-08T00:22:03;2.30;;;2.30;;
79751;SDS011;69234;47.446;21.636;2023-08-08T00:23:15;2.13;;;2.13;;
79751;SDS011;69234;47.446;21.636;2023-08-08T00:23:46;2.10;;;2.10;;
79751;SDS011;69234;47.446;21.636;2023-08-08T00:24:17;2.23;;;2.23;;
79751;SDS011;69234;47.446;21.636;2023-08-08T00:24:48;2.00;;;2.00;;
79751;SDS011;69234;47.446;21.636;2023-08-08T00:25:18;2.07;;;2.07;;
79751;SDS011;69234;47.446;21.636;2023-08-08T00:25:50;2.20;;;2.20;;
79751;SDS011;69234;47.446;21.636;2023-08-08T00:26:21;1.93;;;1.93;;
79751;SDS011;69234;47.446;21.636;2023-08-08T00:26:52;1.90;;;1.90;;
79751;SDS011;69234;47.446;21.636;2023-08-08T00:27:23;2.10;;;2.10;;
79751;SDS011;69234;47.446;21.636;2023-08-08T00:27:54;2.30;;;2.30;;
79751;SDS011;69234;47.446;21.636;2023-08-08T00:28:25;2.37;;;2.37;;
79751;SDS011;69234;47.446;21.636;2023-08-08T00:28:57;1.83;;;1.83;;
79751;SDS011;69234;47.446;21.636;2023-08-08T00:29:28;2.00;;;2.00;;
79751;SDS011;69234;47.446;21.636;2023-08-08T00:29:59;2.53;;;2.53;;
79751;SDS011;69234;47.446;21.636;2023-08-08T00:30:30;2.30;;;2.30;;
79751;SDS011;69234;47.446;21.636;2023-08-08T00:31:01;2.33;;;2.33;;
79751;SDS011;69234;47.446;21.636;2023-08-08T00:31:33;2.30;;;2.30;;
79751;SDS011;69234;47.446;21.636;2023-08-08T00:32:06;2.13;;;2.13;;
79751;SDS011;69234;47.446;21.636;2023-08-08T00:32:37;1.93;;;1.93;;
79751;SDS011;69234;47.446;21.636;2023-08-08T00:33:08;2.23;;;2.23;;
79751;SDS011;69234;47.446;21.636;2023-08-08T00:33:39;2.40;;;2.40;;
79751;SDS011;69234;47.446;21.636;2023-08-08T00:34:09;2.03;;;2.03;;
79751;SDS011;69234;47.446;21.636;2023-08-08T00:34:40;2.30;;;2.30;;
79751;SDS011;69234;47.446;21.636;2023-08-08T00:35:11;2.17;;;2.17;;
79751;SDS011;69234;47.446;21.636;2023-08-08T00:35:42;2.50;;;2.50;;
79751;SDS011;69234;47.446;21.636;2023-08-08T00:36:15;2.30;;;2.30;;
79751;SDS011;69234;47.446;21.636;2023-08-08T00:36:46;2.10;;;2.10;;
79751;SDS011;69234;47.446;21.636;2023-08-08T00:37:16;2.07;;;2.07;;
79751;SDS011;69234;47.446;21.636;2023-08-08T00:37:48;2.30;;;2.30;;
79751;SDS011;69234;47.446;21.636;2023-08-08T00:38:19;2.43;;;2.43;;
79751;SDS011;69234;47.446;21.636;2023-08-08T00:38:50;2.53;;;2.53;;
79751;SDS011;69234;47.446;21.636;2023-08-08T00:39:21;2.83;;;2.83;;
79751;SDS011;69234;47.446;21.636;2023-08-08T00:39:52;2.30;;;2.30;;
79751;SDS011;69234;47.446;21.636;2023-08-08T00:40:22;2.43;;;2.43;;
79751;SDS011;69234;47.446;21.636;2023-08-08T00:40:53;2.23;;;2.23;;
79751;SDS011;69234;47.446;21.636;2023-08-08T00:41:26;2.07;;;2.07;;
79751;SDS011;69234;47.446;21.636;2023-08-08T00:41:57;2.27;;;2.27;;
79751;SDS011;69234;47.446;21.636;2023-08-08T00:42:28;2.43;;;2.43;;
79751;SDS011;69234;47.446;21.636;2023-08-08T00:42:59;2.57;;;2.57;;
79751;SDS011;69234;47.446;21.636;2023-08-08T00:43:30;2.57;;;2.57;;
79751;SDS011;69234;47.446;21.636;2023-08-08T00:44:01;2.37;;;2.37;;
79751;SDS011;69234;47.446;21.636;2023-08-08T00:44:31;2.20;;;2.20;;
79751;SDS011;69234;47.446;21.636;2023-08-08T00:45:03;2.13;;;2.13;;
79751;SDS011;69234;47.446;21.636;2023-08-08T00:46:09;2.23;;;2.23;;
79751;SDS011;69234;47.446;21.636;2023-08-08T00:46:41;2.47;;;2.47;;
79751;SDS011;69234;47.446;21.636;2023-08-08T00:47:12;2.57;;;2.57;;
79751;SDS011;69234;47.446;21.636;2023-08-08T00:47:43;2.67;;;2.67;;
79751;SDS011;69234;47.446;21.636;2023-08-08T00:48:15;2.20;;;2.20;;
79751;SDS011;69234;47.446;21.636;2023-08-08T00:48:47;2.53;;;2.53;;
79751;SDS011;69234;47.446;21.636;2023-08-08T00:49:18;2.33;;;2.33;;
79751;SDS011;69234;47.446;21.636;2023-08-08T00:49:49;2.57;;;2.57;;
79751;SDS011;69234;47.446;21.636;2023-08-08T00:50:20;2.57;;;2.57;;
79751;SDS011;69234;47.446;21.636;2023-08-08T00:50:52;2.77;;;2.77;;
79751;SDS011;69234;47.446;21.636;2023-08-08T00:51:23;2.73;;;2.73;;
79751;SDS011;69234;47.446;21.636;2023-08-08T00:51:55;2.30;;;2.30;;
79751;SDS011;69234;47.446;21.636;2023-08-08T00:52:27;2.20;;;2.20;;
79751;SDS011;69234;47.446;21.636;2023-08-08T00:52:59;2.43;;;2.43;;
79751;SDS011;69234;47.446;21.636;2023-08-08T00:53:30;2.33;;;2.33;;
79751;SDS011;69234;47.446;21.636;2023-08-08T00:54:03;2.33;;;2.33;;
79751;SDS011;69234;47.446;21.636;2023-08-08T00:54:35;2.23;;;2.23;;
79751;SDS011;69234;47.446;21.636;2023-08-08T00:55:06;2.37;;;2.37;;
79751;SDS011;69234;47.446;21.636;2023-08-08T00:57:04;2.67;;;2.67;;
79751;SDS011;69234;47.446;21.636;2023-08-08T00:59:58;2.60;;;2.60;;
79751;SDS011;69234;47.446;21.636;2023-08-08T01:15:49;3.03;;;3.03;;
79751;SDS011;69234;47.446;21.636;2023-08-08T01:20:17;2.93;;;2.93;;
79751;SDS011;69234;47.446;21.636;2023-08-08T01:20:52;2.80;;;2.80;;
79751;SDS011;69234;47.446;21.636;2023-08-08T01:24:00;2.80;;;2.80;;
79751;SDS011;69234;47.446;21.636;2023-08-08T01:42:04;2.93;;;2.93;;
79751;SDS011;69234;47.446;21.636;2023-08-08T01:44:15;3.07;;;3.07;;
79751;SDS011;69234;47.446;21.636;2023-08-08T01:54:19;3.23;;;3.23;;
79751;SDS011;69234;47.446;21.636;2023-08-08T01:57:06;2.83;;;2.83;;
79751;SDS011;69234;47.446;21.636;2023-08-08T02:14:00;2.97;;;2.97;;
79751;SDS011;69234;47.446;21.636;2023-08-08T02:31:10;3.40;;;3.40;;
79751;SDS011;69234;47.446;21.636;2023-08-08T02:46:57;3.50;;;3.50;;
79751;SDS011;69234;47.446;21.636;2023-08-08T02:47:32;3.23;;;3.23;;
79751;SDS011;69234;47.446;21.636;2023-08-08T02:51:27;3.70;;;3.70;;
79751;SDS011;69234;47.446;21.636;2023-08-08T02:52:49;3.27;;;3.27;;
79751;SDS011;69234;47.446;21.636;2023-08-08T02:57:29;3.33;;;3.33;;
79751;SDS011;69234;47.446;21.636;2023-08-08T02:58:39;3.33;;;3.33;;
79751;SDS011;69234;47.446;21.636;2023-08-08T03:01:15;3.43;;;3.43;;
79751;SDS011;69234;47.446;21.636;2023-08-08T03:01:51;3.63;;;3.63;;
79751;SDS011;69234;47.446;21.636;2023-08-08T03:14:48;3.50;;;3.50;;
79751;SDS011;69234;47.446;21.636;2023-08-08T03:15:24;3.80;;;3.80;;
79751;SDS011;69234;47.446;21.636;2023-08-08T03:18:33;3.50;;;3.50;;
79751;SDS011;69234;47.446;21.636;2023-08-08T03:21:17;3.43;;;3.43;;
79751;SDS011;69234;47.446;21.636;2023-08-08T03:27:28;3.67;;;3.67;;
79751;SDS011;69234;47.446;21.636;2023-08-08T03:30:17;3.20;;;3.20;;
79751;SDS011;69234;47.446;21.636;2023-08-08T04:03:15;6.17;;;6.17;;
79751;SDS011;69234;47.446;21.636;2023-08-08T04:05:22;6.40;;;6.40;;
79751;SDS011;69234;47.446;21.636;2023-08-08T04:22:14;3.97;;;3.97;;
79751;SDS011;69234;47.446;21.636;2023-08-08T04:26:11;3.87;;;3.87;;
79751;SDS011;69234;47.446;21.636;2023-08-08T04:32:52;4.00;;;4.00;;
79751;SDS011;69234;47.446;21.636;2023-08-08T04:34:03;3.90;;;3.90;;
79751;SDS011;69234;47.446;21.636;2023-08-08T04:34:34;3.70;;;3.70;;
79751;SDS011;69234;47.446;21.636;2023-08-08T04:35:49;4.07;;;4.07;;
79751;SDS011;69234;47.446;21.636;2023-08-08T04:36:20;3.80;;;3.80;;
79751;SDS011;69234;47.446;21.636;2023-08-08T04:37:33;3.70;;;3.70;;
79751;SDS011;69234;47.446;21.636;2023-08-08T04:41:18;3.83;;;3.83;;
79751;SDS011;69234;47.446;21.636;2023-08-08T04:41:50;3.93;;;3.93;;
79751;SDS011;69234;47.446;21.636;2023-08-08T04:43:57;3.43;;;3.43;;
79751;SDS011;69234;47.446;21.636;2023-08-08T04:44:28;3.33;;;3.33;;
79751;SDS011;69234;47.446;21.636;2023-08-08T04:46:29;3.70;;;3.70;;
79751;SDS011;69234;47.446;21.636;2023-08-08T04:48:51;3.57;;;3.57;;
79751;SDS011;69234;47.446;21.636;2023-08-08T04:49:22;3.57;;;3.57;;
79751;SDS011;69234;47.446;21.636;2023-08-08T04:50:28;3.13;;;3.13;;
79751;SDS011;69234;47.446;21.636;2023-08-08T04:51:01;3.20;;;3.20;;
79751;SDS011;69234;47.446;21.636;2023-08-08T04:51:33;3.37;;;3.37;;
79751;SDS011;69234;47.446;21.636;2023-08-08T04:52:06;3.40;;;3.40;;
79751;SDS011;69234;47.446;21.636;2023-08-08T04:52:37;3.33;;;3.33;;
79751;SDS011;69234;47.446;21.636;2023-08-08T04:53:08;3.53;;;3.53;;
79751;SDS011;69234;47.446;21.636;2023-08-08T04:53:39;3.53;;;3.53;;
79751;SDS011;69234;47.446;21.636;2023-08-08T04:54:15;3.77;;;3.77;;
79751;SDS011;69234;47.446;21.636;2023-08-08T05:01:10;3.83;;;3.83;;
79751;SDS011;69234;47.446;21.636;2023-08-08T05:01:44;3.47;;;3.47;;
79751;SDS011;69234;47.446;21.636;2023-08-08T05:02:15;3.23;;;3.23;;
79751;SDS011;69234;47.446;21.636;2023-08-08T05:02:46;3.53;;;3.53;;
79751;SDS011;69234;47.446;21.636;2023-08-08T05:05:30;3.80;;;3.80;;
79751;SDS011;69234;47.446;21.636;2023-08-08T05:11:44;3.97;;;3.97;;
79751;SDS011;69234;47.446;21.636;2023-08-08T05:13:13;3.30;;;3.30;;
79751;SDS011;69234;47.446;21.636;2023-08-08T05:15:16;3.53;;;3.53;;
79751;SDS011;69234;47.446;21.636;2023-08-08T05:15:47;3.47;;;3.47;;
79751;SDS011;69234;47.446;21.636;2023-08-08T05:16:18;3.63;;;3.63;;
79751;SDS011;69234;47.446;21.636;2023-08-08T05:16:49;3.93;;;3.93;;
79751;SDS011;69234;47.446;21.636;2023-08-08T05:17:20;4.03;;;4.03;;
79751;SDS011;69234;47.446;21.636;2023-08-08T05:17:51;3.87;;;3.87;;
79751;SDS011;69234;47.446;21.636;2023-08-08T05:18:59;3.67;;;3.67;;
79751;SDS011;69234;47.446;21.636;2023-08-08T05:19:30;3.30;;;3.30;;
79751;SDS011;69234;47.446;21.636;2023-08-08T05:20:04;3.57;;;3.57;;
79751;SDS011;69234;47.446;21.636;2023-08-08T05:20:35;3.47;;;3.47;;
79751;SDS011;69234;47.446;21.636;2023-08-08T05:21:06;3.37;;;3.37;;
79751;SDS011;69234;47.446;21.636;2023-08-08T05:22:12;3.10;;;3.10;;
79751;SDS011;69234;47.446;21.636;2023-08-08T05:22:43;3.43;;;3.43;;
79751;SDS011;69234;47.446;21.636;2023-08-08T05:23:14;3.37;;;3.37;;
79751;SDS011;69234;47.446;21.636;2023-08-08T05:23:45;3.43;;;3.43;;
79751;SDS011;69234;47.446;21.636;2023-08-08T05:24:19;3.80;;;3.80;;
79751;SDS011;69234;47.446;21.636;2023-08-08T05:24:49;3.37;;;3.37;;
79751;SDS011;69234;47.446;21.636;2023-08-08T05:25:54;3.57;;;3.57;;
79751;SDS011;69234;47.446;21.636;2023-08-08T05:26:25;3.53;;;3.53;;
79751;SDS011;69234;47.446;21.636;2023-08-08T05:26:56;3.37;;;3.37;;
79751;SDS011;69234;47.446;21.636;2023-08-08T05:27:27;3.10;;;3.10;;
79751;SDS011;69234;47.446;21.636;2023-08-08T05:27:58;3.50;;;3.50;;
79751;SDS011;69234;47.446;21.636;2023-08-08T05:28:29;3.40;;;3.40;;
79751;SDS011;69234;47.446;21.636;2023-08-08T05:31:18;3.53;;;3.53;;
79751;SDS011;69234;47.446;21.636;2023-08-08T05:31:49;3.33;;;3.33;;
79751;SDS011;69234;47.446;21.636;2023-08-08T05:32:55;3.37;;;3.37;;
79751;SDS011;69234;47.446;21.636;2023-08-08T05:33:26;3.57;;;3.57;;
79751;SDS011;69234;47.446;21.636;2023-08-08T05:33:56;3.20;;;3.20;;
79751;SDS011;69234;47.446;21.636;2023-08-08T05:34:27;3.10;;;3.10;;
79751;SDS011;69234;47.446;21.636;2023-08-08T05:34:58;3.57;;;3.57;;
79751;SDS011;69234;47.446;21.636;2023-08-08T05:37:21;3.40;;;3.40;;
79751;SDS011;69234;47.446;21.636;2023-08-08T05:37:52;3.37;;;3.37;;
79751;SDS011;69234;47.446;21.636;2023-08-08T05:38:23;3.40;;;3.40;;
79751;SDS011;69234;47.446;21.636;2023-08-08T05:38:57;3.90;;;3.90;;
79751;SDS011;69234;47.446;21.636;2023-08-08T05:39:31;3.17;;;3.17;;
79751;SDS011;69234;47.446;21.636;2023-08-08T05:40:58;3.73;;;3.73;;
79751;SDS011;69234;47.446;21.636;2023-08-08T05:41:29;3.67;;;3.67;;
79751;SDS011;69234;47.446;21.636;2023-08-08T05:42:44;3.57;;;3.57;;
79751;SDS011;69234;47.446;21.636;2023-08-08T05:43:51;3.93;;;3.93;;
79751;SDS011;69234;47.446;21.636;2023-08-08T05:44:22;3.40;;;3.40;;
79751;SDS011;69234;47.446;21.636;2023-08-08T05:44:55;3.30;;;3.30;;
79751;SDS011;69234;47.446;21.636;2023-08-08T05:45:26;3.63;;;3.63;;
79751;SDS011;69234;47.446;21.636;2023-08-08T05:45:57;3.30;;;3.30;;
79751;SDS011;69234;47.446;21.636;2023-08-08T05:46:28;3.23;;;3.23;;
79751;SDS011;69234;47.446;21.636;2023-08-08T05:46:59;3.27;;;3.27;;
79751;SDS011;69234;47.446;21.636;2023-08-08T05:47:30;3.30;;;3.30;;
79751;SDS011;69234;47.446;21.636;2023-08-08T05:48:02;3.33;;;3.33;;
79751;SDS011;69234;47.446;21.636;2023-08-08T05:50:17;3.33;;;3.33;;
79751;SDS011;69234;47.446;21.636;2023-08-08T05:50:49;3.20;;;3.20;;
79751;SDS011;69234;47.446;21.636;2023-08-08T05:51:20;3.03;;;3.03;;
79751;SDS011;69234;47.446;21.636;2023-08-08T05:51:51;2.80;;;2.80;;
79751;SDS011;69234;47.446;21.636;2023-08-08T05:52:25;3.67;;;3.67;;
79751;SDS011;69234;47.446;21.636;2023-08-08T05:52:55;3.40;;;3.40;;
79751;SDS011;69234;47.446;21.636;2023-08-08T05:53:26;2.90;;;2.90;;
79751;SDS011;69234;47.446;21.636;2023-08-08T05:53:57;2.90;;;2.90;;
79751;SDS011;69234;47.446;21.636;2023-08-08T05:54:28;3.10;;;3.10;;
79751;SDS011;69234;47.446;21.636;2023-08-08T05:54:59;3.03;;;3.03;;
79751;SDS011;69234;47.446;21.636;2023-08-08T05:55:30;3.27;;;3.27;;
79751;SDS011;69234;47.446;21.636;2023-08-08T05:56:01;3.10;;;3.10;;
79751;SDS011;69234;47.446;21.636;2023-08-08T05:56:35;3.27;;;3.27;;
79751;SDS011;69234;47.446;21.636;2023-08-08T05:57:07;3.30;;;3.30;;
79751;SDS011;69234;47.446;21.636;2023-08-08T05:57:38;3.30;;;3.30;;
79751;SDS011;69234;47.446;21.636;2023-08-08T05:58:12;3.33;;;3.33;;
79751;SDS011;69234;47.446;21.636;2023-08-08T05:58:43;3.33;;;3.33;;
79751;SDS011;69234;47.446;21.636;2023-08-08T05:59:14;3.40;;;3.40;;
79751;SDS011;69234;47.446;21.636;2023-08-08T05:59:45;3.50;;;3.50;;
79751;SDS011;69234;47.446;21.636;2023-08-08T06:00:16;3.60;;;3.60;;
79751;SDS011;69234;47.446;21.636;2023-08-08T06:00:47;3.57;;;3.57;;
79751;SDS011;69234;47.446;21.636;2023-08-08T06:01:18;3.33;;;3.33;;
79751;SDS011;69234;47.446;21.636;2023-08-08T06:01:49;3.30;;;3.30;;
79751;SDS011;69234;47.446;21.636;2023-08-08T06:02:20;3.73;;;3.73;;
79751;SDS011;69234;47.446;21.636;2023-08-08T06:02:51;3.53;;;3.53;;
79751;SDS011;69234;47.446;21.636;2023-08-08T06:03:22;3.60;;;3.60;;
79751;SDS011;69234;47.446;21.636;2023-08-08T06:03:53;3.80;;;3.80;;
79751;SDS011;69234;47.446;21.636;2023-08-08T06:04:24;3.90;;;3.90;;
79751;SDS011;69234;47.446;21.636;2023-08-08T06:04:55;3.43;;;3.43;;
79751;SDS011;69234;47.446;21.636;2023-08-08T06:05:27;3.53;;;3.53;;
79751;SDS011;69234;47.446;21.636;2023-08-08T06:05:58;3.87;;;3.87;;
79751;SDS011;69234;47.446;21.636;2023-08-08T06:06:29;3.27;;;3.27;;
79751;SDS011;69234;47.446;21.636;2023-08-08T06:07:00;3.30;;;3.30;;
79751;SDS011;69234;47.446;21.636;2023-08-08T06:07:31;3.17;;;3.17;;
79751;SDS011;69234;47.446;21.636;2023-08-08T06:08:02;3.20;;;3.20;;
79751;SDS011;69234;47.446;21.636;2023-08-08T06:08:36;3.47;;;3.47;;
79751;SDS011;69234;47.446;21.636;2023-08-08T06:09:10;3.37;;;3.37;;
79751;SDS011;69234;47.446;21.636;2023-08-08T06:09:41;3.60;;;3.60;;
79751;SDS011;69234;47.446;21.636;2023-08-08T06:10:12;3.13;;;3.13;;
79751;SDS011;69234;47.446;21.636;2023-08-08T06:10:43;3.37;;;3.37;;
79751;SDS011;69234;47.446;21.636;2023-08-08T06:11:13;3.40;;;3.40;;
79751;SDS011;69234;47.446;21.636;2023-08-08T06:11:44;3.13;;;3.13;;
79751;SDS011;69234;47.446;21.636;2023-08-08T06:12:15;3.30;;;3.30;;
79751;SDS011;69234;47.446;21.636;2023-08-08T06:12:46;3.77;;;3.77;;
79751;SDS011;69234;47.446;21.636;2023-08-08T06:13:17;3.83;;;3.83;;
79751;SDS011;69234;47.446;21.636;2023-08-08T06:13:48;3.70;;;3.70;;
79751;SDS011;69234;47.446;21.636;2023-08-08T06:14:19;3.90;;;3.90;;
79751;SDS011;69234;47.446;21.636;2023-08-08T06:14:50;3.60;;;3.60;;
79751;SDS011;69234;47.446;21.636;2023-08-08T06:15:21;3.03;;;3.03;;
79751;SDS011;69234;47.446;21.636;2023-08-08T06:15:52;3.00;;;3.00;;
79751;SDS011;69234;47.446;21.636;2023-08-08T06:16:23;3.40;;;3.40;;
79751;SDS011;69234;47.446;21.636;2023-08-08T06:16:54;3.40;;;3.40;;
79751;SDS011;69234;47.446;21.636;2023-08-08T06:17:25;3.83;;;3.83;;
79751;SDS011;69234;47.446;21.636;2023-08-08T06:17:56;3.70;;;3.70;;
79751;SDS011;69234;47.446;21.636;2023-08-08T06:18:27;3.20;;;3.20;;
79751;SDS011;69234;47.446;21.636;2023-08-08T06:18:58;3.43;;;3.43;;
79751;SDS011;69234;47.446;21.636;2023-08-08T06:19:29;3.27;;;3.27;;
79751;SDS011;69234;47.446;21.636;2023-08-08T06:20:00;3.07;;;3.07;;
79751;SDS011;69234;47.446;21.636;2023-08-08T06:20:31;3.53;;;3.53;;
79751;SDS011;69234;47.446;21.636;2023-08-08T06:21:02;3.17;;;3.17;;
79751;SDS011;69234;47.446;21.636;2023-08-08T06:21:33;3.10;;;3.10;;
79751;SDS011;69234;47.446;21.636;2023-08-08T06:22:06;3.50;;;3.50;;
79751;SDS011;69234;47.446;21.636;2023-08-08T06:22:37;3.13;;;3.13;;
79751;SDS011;69234;47.446;21.636;2023-08-08T06:23:09;3.43;;;3.43;;
79751;SDS011;69234;47.446;21.636;2023-08-08T06:23:40;4.10;;;4.10;;
79751;SDS011;69234;47.446;21.636;2023-08-08T06:24:11;3.77;;;3.77;;
79751;SDS011;69234;47.446;21.636;2023-08-08T06:24:42;3.40;;;3.40;;
79751;SDS011;69234;47.446;21.636;2023-08-08T06:25:14;3.13;;;3.13;;
79751;SDS011;69234;47.446;21.636;2023-08-08T06:25:45;3.23;;;3.23;;
79751;SDS011;69234;47.446;21.636;2023-08-08T06:26:15;3.60;;;3.60;;
79751;SDS011;69234;47.446;21.636;2023-08-08T06:26:46;4.80;;;4.80;;
79751;SDS011;69234;47.446;21.636;2023-08-08T06:27:17;6.10;;;6.10;;
79751;SDS011;69234;47.446;21.636;2023-08-08T06:27:48;6.77;;;6.77;;
79751;SDS011;69234;47.446;21.636;2023-08-08T06:28:19;7.80;;;7.80;;
79751;SDS011;69234;47.446;21.636;2023-08-08T06:28:50;7.70;;;7.70;;
79751;SDS011;69234;47.446;21.636;2023-08-08T06:29:21;7.40;;;7.40;;
79751;SDS011;69234;47.446;21.636;2023-08-08T06:29:52;7.23;;;7.23;;
79751;SDS011;69234;47.446;21.636;2023-08-08T06:30:23;7.50;;;7.50;;
79751;SDS011;69234;47.446;21.636;2023-08-08T06:30:54;7.57;;;7.57;;
79751;SDS011;69234;47.446;21.636;2023-08-08T06:31:25;6.83;;;6.83;;
79751;SDS011;69234;47.446;21.636;2023-08-08T06:31:56;6.60;;;6.60;;
79751;SDS011;69234;47.446;21.636;2023-08-08T06:32:27;6.83;;;6.83;;
79751;SDS011;69234;47.446;21.636;2023-08-08T06:32:58;5.97;;;5.97;;
79751;SDS011;69234;47.446;21.636;2023-08-08T06:33:29;5.00;;;5.00;;
79751;SDS011;69234;47.446;21.636;2023-08-08T06:34:00;4.50;;;4.50;;
79751;SDS011;69234;47.446;21.636;2023-08-08T06:34:31;4.40;;;4.40;;
79751;SDS011;69234;47.446;21.636;2023-08-08T06:35:02;3.87;;;3.87;;
79751;SDS011;69234;47.446;21.636;2023-08-08T06:35:33;4.70;;;4.70;;
79751;SDS011;69234;47.446;21.636;2023-08-08T06:36:05;4.20;;;4.20;;
79751;SDS011;69234;47.446;21.636;2023-08-08T06:36:36;4.00;;;4.00;;
79751;SDS011;69234;47.446;21.636;2023-08-08T06:37:07;4.03;;;4.03;;
79751;SDS011;69234;47.446;21.636;2023-08-08T06:37:38;4.83;;;4.83;;
79751;SDS011;69234;47.446;21.636;2023-08-08T06:38:09;5.20;;;5.20;;
79751;SDS011;69234;47.446;21.636;2023-08-08T06:38:40;5.27;;;5.27;;
79751;SDS011;69234;47.446;21.636;2023-08-08T06:39:11;5.17;;;5.17;;
79751;SDS011;69234;47.446;21.636;2023-08-08T06:39:42;4.97;;;4.97;;
79751;SDS011;69234;47.446;21.636;2023-08-08T06:40:13;4.67;;;4.67;;
79751;SDS011;69234;47.446;21.636;2023-08-08T06:40:44;4.50;;;4.50;;
79751;SDS011;69234;47.446;21.636;2023-08-08T06:41:15;4.93;;;4.93;;
79751;SDS011;69234;47.446;21.636;2023-08-08T06:41:46;4.80;;;4.80;;
79751;SDS011;69234;47.446;21.636;2023-08-08T06:42:19;4.60;;;4.60;;
79751;SDS011;69234;47.446;21.636;2023-08-08T06:43:00;4.10;;;4.10;;
79751;SDS011;69234;47.446;21.636;2023-08-08T06:43:31;4.30;;;4.30;;
79751;SDS011;69234;47.446;21.636;2023-08-08T06:44:02;4.30;;;4.30;;
79751;SDS011;69234;47.446;21.636;2023-08-08T06:44:40;4.20;;;4.20;;
79751;SDS011;69234;47.446;21.636;2023-08-08T06:45:14;3.53;;;3.53;;
79751;SDS011;69234;47.446;21.636;2023-08-08T06:45:45;3.97;;;3.97;;
79751;SDS011;69234;47.446;21.636;2023-08-08T06:46:16;4.33;;;4.33;;
79751;SDS011;69234;47.446;21.636;2023-08-08T06:46:47;4.07;;;4.07;;
79751;SDS011;69234;47.446;21.636;2023-08-08T06:47:18;3.90;;;3.90;;
79751;SDS011;69234;47.446;21.636;2023-08-08T06:47:49;3.87;;;3.87;;
79751;SDS011;69234;47.446;21.636;2023-08-08T06:48:20;3.70;;;3.70;;
79751;SDS011;69234;47.446;21.636;2023-08-08T06:48:51;3.73;;;3.73;;
79751;SDS011;69234;47.446;21.636;2023-08-08T06:49:26;3.33;;;3.33;;
79751;SDS011;69234;47.446;21.636;2023-08-08T06:49:57;3.97;;;3.97;;
79751;SDS011;69234;47.446;21.636;2023-08-08T06:50:28;3.77;;;3.77;;
79751;SDS011;69234;47.446;21.636;2023-08-08T06:50:59;3.60;;;3.60;;
79751;SDS011;69234;47.446;21.636;2023-08-08T06:51:30;3.27;;;3.27;;
79751;SDS011;69234;47.446;21.636;2023-08-08T06:52:01;3.03;;;3.03;;
79751;SDS011;69234;47.446;21.636;2023-08-08T06:52:32;2.73;;;2.73;;
79751;SDS011;69234;47.446;21.636;2023-08-08T06:53:04;2.97;;;2.97;;
79751;SDS011;69234;47.446;21.636;2023-08-08T06:54:20;2.93;;;2.93;;
79751;SDS011;69234;47.446;21.636;2023-08-08T06:54:51;2.90;;;2.90;;
79751;SDS011;69234;47.446;21.636;2023-08-08T06:55:22;2.63;;;2.63;;
79751;SDS011;69234;47.446;21.636;2023-08-08T06:55:54;2.80;;;2.80;;
79751;SDS011;69234;47.446;21.636;2023-08-08T06:56:25;2.73;;;2.73;;
79751;SDS011;69234;47.446;21.636;2023-08-08T06:56:56;2.70;;;2.70;;
79751;SDS011;69234;47.446;21.636;2023-08-08T06:57:28;2.47;;;2.47;;
79751;SDS011;69234;47.446;21.636;2023-08-08T06:58:03;2.83;;;2.83;;
79751;SDS011;69234;47.446;21.636;2023-08-08T06:58:34;2.97;;;2.97;;
79751;SDS011;69234;47.446;21.636;2023-08-08T06:59:05;2.90;;;2.90;;
79751;SDS011;69234;47.446;21.636;2023-08-08T06:59:36;2.87;;;2.87;;
79751;SDS011;69234;47.446;21.636;2023-08-08T07:00:07;2.97;;;2.97;;
79751;SDS011;69234;47.446;21.636;2023-08-08T07:00:39;2.47;;;2.47;;
79751;SDS011;69234;47.446;21.636;2023-08-08T07:01:10;2.53;;;2.53;;
79751;SDS011;69234;47.446;21.636;2023-08-08T07:01:40;2.40;;;2.40;;
79751;SDS011;69234;47.446;21.636;2023-08-08T07:02:11;2.50;;;2.50;;
79751;SDS011;69234;47.446;21.636;2023-08-08T07:02:42;2.67;;;2.67;;
79751;SDS011;69234;47.446;21.636;2023-08-08T07:03:13;2.63;;;2.63;;
79751;SDS011;69234;47.446;21.636;2023-08-08T07:03:44;2.80;;;2.80;;
79751;SDS011;69234;47.446;21.636;2023-08-08T07:04:17;2.73;;;2.73;;
79751;SDS011;69234;47.446;21.636;2023-08-08T07:04:48;2.80;;;2.80;;
79751;SDS011;69234;47.446;21.636;2023-08-08T07:05:19;2.83;;;2.83;;
79751;SDS011;69234;47.446;21.636;2023-08-08T07:05:50;2.77;;;2.77;;
79751;SDS011;69234;47.446;21.636;2023-08-08T07:06:22;2.83;;;2.83;;
79751;SDS011;69234;47.446;21.636;2023-08-08T07:06:53;2.77;;;2.77;;
79751;SDS011;69234;47.446;21.636;2023-08-08T07:07:24;2.87;;;2.87;;
79751;SDS011;69234;47.446;21.636;2023-08-08T07:07:55;2.50;;;2.50;;